createdAt,value
2022-09-28T00:04:01.423Z,1.50
2022-09-28T00:09:01.894Z,1.90
2022-09-28T00:14:03.517Z,2.63
2022-09-28T00:19:04.885Z,2.83
2022-09-28T00:24:15.363Z,1.63
2022-09-28T00:29:23.672Z,2.30
2022-09-28T00:34:23.305Z,1.60
2022-09-28T00:39:21.530Z,2.47
2022-09-28T00:44:40.896Z,2.20
2022-09-28T00:49:46.351Z,2.70
2022-09-28T00:54:47.779Z,2.13
2022-09-28T00:59:46.362Z,3.07
2022-09-28T01:04:46.028Z,3.33
2022-09-28T01:09:45.849Z,3.37
2022-09-28T01:14:45.708Z,6.57
2022-09-28T01:20:27.813Z,5.20
2022-09-28T01:25:36.119Z,4.40
2022-09-28T01:30:43.497Z,3.13
2022-09-28T01:35:45.972Z,5.77
2022-09-28T01:40:45.454Z,4.87
2022-09-28T01:45:47.592Z,6.40
2022-09-28T01:50:49.492Z,4.83
2022-09-28T01:55:51.117Z,3.60
2022-09-28T02:01:01.531Z,8.37
2022-09-28T02:06:06.739Z,4.20
2022-09-28T02:11:09.004Z,4.37
2022-09-28T02:16:15.141Z,5.30
2022-09-28T02:21:18.924Z,6.00
2022-09-28T02:26:25.939Z,5.90
2022-09-28T02:31:25.563Z,4.20
2022-09-28T02:36:25.920Z,4.00
2022-09-28T02:41:39.252Z,7.53
2022-09-28T02:46:50.542Z,3.77
2022-09-28T02:52:07.111Z,4.53
2022-09-28T02:57:14.138Z,4.30
2022-09-28T03:02:24.996Z,4.70
2022-09-28T03:07:27.821Z,7.27
2022-09-28T03:12:29.329Z,5.53
2022-09-28T03:17:29.519Z,4.70
2022-09-28T03:22:27.677Z,8.33
2022-09-28T03:27:25.917Z,4.07
2022-09-28T03:32:24.474Z,5.00
2022-09-28T03:37:24.891Z,6.97
2022-09-28T03:42:23.175Z,4.33
2022-09-28T03:47:22.803Z,6.30
2022-09-28T03:52:21.170Z,7.20
2022-09-28T03:57:20.847Z,7.60
2022-09-28T04:02:19.349Z,5.87
2022-09-28T04:07:17.550Z,6.80
2022-09-28T04:12:15.865Z,7.00
2022-09-28T04:17:15.739Z,6.30
2022-09-28T04:22:14.337Z,11.23
2022-09-28T04:27:29.952Z,7.80
2022-09-28T04:32:29.672Z,6.77
2022-09-28T04:37:28.106Z,9.10
2022-09-28T04:42:26.620Z,6.20
2022-09-28T04:47:25.134Z,8.10
2022-09-28T04:52:52.448Z,6.37
2022-09-28T04:57:50.687Z,13.00
2022-09-28T05:02:49.074Z,12.67
2022-09-28T05:08:27.874Z,11.93
2022-09-28T05:13:26.820Z,9.57
2022-09-28T05:18:25.625Z,6.20
2022-09-28T05:23:34.720Z,11.67
2022-09-28T05:28:34.900Z,10.90
2022-09-28T05:33:52.451Z,5.87
2022-09-28T05:38:52.087Z,11.70
2022-09-28T05:43:51.645Z,11.63
2022-09-28T05:48:51.230Z,9.13
2022-09-28T05:53:51.047Z,8.30
2022-09-28T05:58:49.985Z,9.90
2022-09-28T06:03:50.636Z,12.07
2022-09-28T06:08:51.763Z,13.93
2022-09-28T06:14:07.728Z,14.80
2022-09-28T06:19:06.114Z,7.23
2022-09-28T06:24:16.841Z,6.67
2022-09-28T06:29:19.880Z,12.13
2022-09-28T06:34:19.065Z,7.13
2022-09-28T06:39:18.998Z,11.30
2022-09-28T06:44:17.403Z,12.77
2022-09-28T06:49:55.415Z,7.60
2022-09-28T06:55:23.203Z,13.70
2022-09-28T07:00:25.456Z,12.97
2022-09-28T07:05:24.242Z,13.63
2022-09-28T07:10:36.154Z,13.80
2022-09-28T07:15:56.031Z,6.87
2022-09-28T07:20:57.324Z,8.47
2022-09-28T07:25:58.284Z,13.87
2022-09-28T07:31:04.336Z,13.77
2022-09-28T07:36:22.721Z,13.47
2022-09-28T07:41:32.494Z,11.20
2022-09-28T07:46:34.161Z,13.70
2022-09-28T07:51:37.910Z,8.10
2022-09-28T07:57:08.336Z,11.33
2022-09-28T08:02:22.980Z,7.73
2022-09-28T08:07:23.888Z,12.20
2022-09-28T08:12:30.464Z,8.70
2022-09-28T08:17:51.409Z,11.70
2022-09-28T08:22:52.527Z,11.73
2022-09-28T08:27:53.128Z,7.07
2022-09-28T08:32:52.168Z,10.07
2022-09-28T08:38:09.354Z,6.20
2022-09-28T08:43:57.351Z,9.80
2022-09-28T08:49:24.998Z,7.33
2022-09-28T08:54:45.763Z,6.70
2022-09-28T08:59:54.407Z,7.17
2022-09-28T09:04:59.460Z,6.03
2022-09-28T09:10:17.599Z,8.93
2022-09-28T09:15:29.507Z,4.03
2022-09-28T09:20:39.013Z,5.43
2022-09-28T09:25:49.225Z,6.40
2022-09-28T09:30:58.761Z,5.77
2022-09-28T09:36:11.944Z,9.03
2022-09-28T09:41:41.459Z,7.40
2022-09-28T09:47:06.188Z,6.03
2022-09-28T09:52:25.108Z,8.67
2022-09-28T09:57:27.671Z,6.50
2022-09-28T10:02:36.570Z,10.07
2022-09-28T10:07:47.854Z,10.30
2022-09-28T10:12:46.644Z,5.20
2022-09-28T10:17:46.669Z,6.60
2022-09-28T10:23:06.753Z,10.80
2022-09-28T10:28:07.974Z,9.07
2022-09-28T10:33:31.387Z,9.20
2022-09-28T10:38:35.248Z,6.00
2022-09-28T10:43:43.770Z,6.40
2022-09-28T10:48:53.403Z,12.13
2022-09-28T10:54:02.741Z,7.10
2022-09-28T10:59:41.461Z,5.47
2022-09-28T11:04:56.368Z,10.17
2022-09-28T11:09:56.288Z,5.70
2022-09-28T11:15:01.648Z,6.30
2022-09-28T11:20:26.760Z,11.70
2022-09-28T11:25:28.593Z,12.50
2022-09-28T11:30:31.113Z,5.87
2022-09-28T11:36:06.145Z,10.30
2022-09-28T11:41:26.997Z,8.80
2022-09-28T11:46:33.699Z,9.73
2022-09-28T11:51:42.848Z,6.80
2022-09-28T11:56:44.642Z,9.23
2022-09-28T12:01:48.704Z,6.33
2022-09-28T12:07:12.511Z,5.67
2022-09-28T12:12:21.230Z,4.33
2022-09-28T12:17:24.656Z,8.20
2022-09-28T12:22:31.481Z,6.37
2022-09-28T12:27:38.018Z,4.73
2022-09-28T12:32:42.353Z,5.20
2022-09-28T12:37:58.666Z,8.03
2022-09-28T12:43:20.107Z,7.77
2022-09-28T12:48:40.824Z,5.43
2022-09-28T12:54:00.193Z,6.70
2022-09-28T12:59:11.010Z,5.77
2022-09-28T13:04:28.980Z,5.37
2022-09-28T13:09:31.436Z,5.43
2022-09-28T13:15:09.972Z,5.67
2022-09-28T13:20:22.482Z,3.93
2022-09-28T13:25:26.002Z,2.83
2022-09-28T13:30:25.743Z,4.63
2022-09-28T13:35:24.659Z,5.13
2022-09-28T13:41:11.377Z,4.60
2022-09-28T13:46:14.286Z,4.10
2022-09-28T13:51:38.613Z,5.20
2022-09-28T13:56:49.447Z,5.27
2022-09-28T14:01:55.841Z,5.27
2022-09-28T14:06:57.477Z,5.23
2022-09-28T14:11:59.462Z,3.97
2022-09-28T14:17:50.151Z,5.70
2022-09-28T14:23:30.517Z,5.13
2022-09-28T14:28:43.288Z,4.80
2022-09-28T14:33:42.969Z,3.10
2022-09-28T14:39:06.961Z,2.80
2022-09-28T14:44:10.741Z,2.70
2022-09-28T14:49:42.844Z,4.30
2022-09-28T14:54:54.996Z,2.50
2022-09-28T14:59:56.327Z,6.37
2022-09-28T15:04:59.864Z,2.73
2022-09-28T15:09:59.565Z,5.80
2022-09-28T15:15:02.562Z,3.03
2022-09-28T15:20:33.448Z,2.70
2022-09-28T15:25:35.197Z,3.10
2022-09-28T15:30:36.473Z,2.77
2022-09-28T15:35:35.710Z,5.20
2022-09-28T15:40:38.477Z,5.83
2022-09-28T15:45:40.612Z,2.67
2022-09-28T15:50:45.773Z,4.43
2022-09-28T15:55:46.306Z,7.83
2022-09-28T16:00:46.721Z,6.83
2022-09-28T16:05:47.319Z,4.93
2022-09-28T16:11:15.624Z,3.40
2022-09-28T16:16:17.976Z,5.93
2022-09-28T16:21:43.719Z,4.03
2022-09-28T16:26:41.958Z,4.80
2022-09-28T16:31:43.839Z,6.10
2022-09-28T16:36:47.261Z,7.37
2022-09-28T16:41:49.075Z,5.97
2022-09-28T16:46:48.732Z,3.37
2022-09-28T16:51:48.003Z,4.70
2022-09-28T16:56:46.149Z,5.07
2022-09-28T17:01:44.349Z,6.93
2022-09-28T17:06:44.198Z,8.47
2022-09-28T17:11:42.354Z,11.17
2022-09-28T17:17:06.750Z,7.67
2022-09-28T17:22:00.829Z,7.00
2022-09-28T17:27:00.798Z,7.30
2022-09-28T17:31:58.970Z,5.80
2022-09-28T17:36:57.224Z,8.10
2022-09-28T17:41:56.754Z,8.00
2022-09-28T17:46:54.891Z,8.60
2022-09-28T17:51:53.017Z,5.30
2022-09-28T17:56:51.180Z,7.50
2022-09-28T18:01:50.748Z,7.70
2022-09-28T18:06:49.112Z,7.63
2022-09-28T18:11:50.166Z,8.97
2022-09-28T18:16:48.379Z,9.93
2022-09-28T18:21:48.225Z,7.63
2022-09-28T18:26:46.354Z,7.67
2022-09-28T18:31:44.510Z,11.90
2022-09-28T18:36:42.687Z,8.67
2022-09-28T18:41:43.081Z,7.73
2022-09-28T18:46:43.442Z,10.90
2022-09-28T18:51:41.685Z,11.30
2022-09-28T18:56:41.348Z,9.60
2022-09-28T19:01:41.621Z,10.33
2022-09-28T19:06:41.541Z,13.77
2022-09-28T19:11:41.246Z,15.03
2022-09-28T19:16:39.364Z,11.83
2022-09-28T19:21:37.541Z,12.30
2022-09-28T19:26:35.790Z,12.33
2022-09-28T19:31:35.425Z,11.87
2022-09-28T19:36:34.292Z,11.93
2022-09-28T19:41:44.435Z,10.10
2022-09-28T19:46:44.533Z,12.03
2022-09-28T19:52:11.091Z,10.20
2022-09-28T19:57:07.487Z,10.03
2022-09-28T20:02:08.788Z,11.50
2022-09-28T20:07:06.982Z,8.90
2022-09-28T20:12:05.320Z,11.10
2022-09-28T20:17:03.564Z,7.60
2022-09-28T20:22:03.446Z,6.93
2022-09-28T20:27:02.555Z,9.10
2022-09-28T20:32:00.714Z,8.83
2022-09-28T20:36:58.921Z,7.27
2022-09-28T20:41:58.425Z,8.10
2022-09-28T20:46:56.770Z,6.80
2022-09-28T20:51:55.052Z,5.47
2022-09-28T20:56:53.331Z,6.73
2022-09-28T21:01:52.997Z,6.27
2022-09-28T21:06:51.931Z,6.07
2022-09-28T21:11:50.143Z,5.90
2022-09-28T21:16:48.315Z,6.33
2022-09-28T21:21:48.236Z,8.80
2022-09-28T21:26:46.442Z,7.53
2022-09-28T21:31:46.727Z,8.57
2022-09-28T21:36:44.979Z,7.50
2022-09-28T21:41:44.919Z,8.40
2022-09-28T21:46:43.411Z,7.70
2022-09-28T21:51:41.641Z,6.70
2022-09-28T21:56:39.801Z,7.67
2022-09-28T22:01:41.784Z,7.67
2022-09-28T22:06:40.006Z,7.20
2022-09-28T22:11:38.303Z,7.23
2022-09-28T22:16:36.459Z,8.07
2022-09-28T22:21:36.036Z,7.90
2022-09-28T22:26:36.349Z,7.10
2022-09-28T22:31:36.529Z,7.67
2022-09-28T22:36:36.437Z,7.57
2022-09-28T22:41:34.882Z,6.43
2022-09-28T22:46:33.141Z,7.30
2022-09-28T22:51:32.536Z,6.80
2022-09-28T22:56:32.121Z,7.70
2022-09-28T23:01:31.446Z,7.10
2022-09-28T23:06:31.349Z,6.67
2022-09-28T23:11:31.546Z,7.13
2022-09-28T23:16:30.287Z,5.90
2022-09-28T23:21:29.457Z,6.27
2022-09-28T23:26:29.961Z,6.37
2022-09-28T23:31:31.282Z,5.93
2022-09-28T23:36:30.046Z,5.10
2022-09-28T23:41:28.249Z,5.43
2022-09-28T23:46:26.479Z,5.50
2022-09-28T23:51:26.102Z,5.37
2022-09-28T23:56:24.269Z,5.20
